sensor_id;sensor_type;location;lat;lon;timestamp;P1;durP1;ratioP1;P2;durP2;ratioP2
23376;SDS011;14353;46.070;13.222;2024-02-26T00:01:38;3.45;;;2.95;;
23376;SDS011;14353;46.070;13.222;2024-02-26T00:04:04;3.60;;;3.10;;
23376;SDS011;14353;46.070;13.222;2024-02-26T00:06:30;3.53;;;2.92;;
23376;SDS011;14353;46.070;13.222;2024-02-26T00:08:56;3.60;;;2.97;;
23376;SDS011;14353;46.070;13.222;2024-02-26T00:11:22;3.97;;;3.05;;
23376;SDS011;14353;46.070;13.222;2024-02-26T00:13:47;3.47;;;2.90;;
23376;SDS011;14353;46.070;13.222;2024-02-26T00:16:13;4.15;;;3.20;;
23376;SDS011;14353;46.070;13.222;2024-02-26T00:18:39;3.47;;;3.17;;
23376;SDS011;14353;46.070;13.222;2024-02-26T00:21:04;4.32;;;3.47;;
23376;SDS011;14353;46.070;13.222;2024-02-26T00:23:30;4.03;;;3.28;;
23376;SDS011;14353;46.070;13.222;2024-02-26T00:25:56;3.75;;;3.45;;
23376;SDS011;14353;46.070;13.222;2024-02-26T00:28:22;3.88;;;3.10;;
23376;SDS011;14353;46.070;13.222;2024-02-26T00:30:49;3.58;;;3.28;;
23376;SDS011;14353;46.070;13.222;2024-02-26T00:33:16;3.40;;;3.05;;
23376;SDS011;14353;46.070;13.222;2024-02-26T00:35:42;3.63;;;3.22;;
23376;SDS011;14353;46.070;13.222;2024-02-26T00:38:08;3.53;;;3.00;;
23376;SDS011;14353;46.070;13.222;2024-02-26T00:40:34;3.83;;;3.25;;
23376;SDS011;14353;46.070;13.222;2024-02-26T00:43:00;4.15;;;3.30;;
23376;SDS011;14353;46.070;13.222;2024-02-26T00:45:25;3.97;;;3.50;;
23376;SDS011;14353;46.070;13.222;2024-02-26T00:47:51;4.35;;;3.50;;
23376;SDS011;14353;46.070;13.222;2024-02-26T00:50:17;3.60;;;3.10;;
23376;SDS011;14353;46.070;13.222;2024-02-26T00:52:42;3.67;;;3.28;;
23376;SDS011;14353;46.070;13.222;2024-02-26T00:55:08;4.00;;;3.28;;
23376;SDS011;14353;46.070;13.222;2024-02-26T00:57:34;3.38;;;3.00;;
23376;SDS011;14353;46.070;13.222;2024-02-26T01:00:00;3.60;;;3.13;;
23376;SDS011;14353;46.070;13.222;2024-02-26T01:02:26;4.28;;;3.40;;
23376;SDS011;14353;46.070;13.222;2024-02-26T01:04:52;3.97;;;3.55;;
23376;SDS011;14353;46.070;13.222;2024-02-26T01:07:17;3.90;;;3.33;;
23376;SDS011;14353;46.070;13.222;2024-02-26T01:09:47;4.88;;;3.35;;
23376;SDS011;14353;46.070;13.222;2024-02-26T01:12:12;3.80;;;3.40;;
23376;SDS011;14353;46.070;13.222;2024-02-26T01:14:38;3.97;;;3.42;;
23376;SDS011;14353;46.070;13.222;2024-02-26T01:17:04;3.65;;;3.25;;
23376;SDS011;14353;46.070;13.222;2024-02-26T01:19:29;4.32;;;3.35;;
23376;SDS011;14353;46.070;13.222;2024-02-26T01:21:55;3.53;;;3.03;;
23376;SDS011;14353;46.070;13.222;2024-02-26T01:24:21;4.60;;;3.30;;
23376;SDS011;14353;46.070;13.222;2024-02-26T01:26:46;3.90;;;3.17;;
23376;SDS011;14353;46.070;13.222;2024-02-26T01:29:12;4.32;;;3.60;;
23376;SDS011;14353;46.070;13.222;2024-02-26T01:31:38;4.10;;;3.42;;
23376;SDS011;14353;46.070;13.222;2024-02-26T01:34:03;3.70;;;3.30;;
23376;SDS011;14353;46.070;13.222;2024-02-26T01:36:29;4.25;;;3.60;;
23376;SDS011;14353;46.070;13.222;2024-02-26T01:38:55;3.90;;;3.22;;
23376;SDS011;14353;46.070;13.222;2024-02-26T01:41:20;3.38;;;2.95;;
23376;SDS011;14353;46.070;13.222;2024-02-26T01:43:46;3.80;;;3.30;;
23376;SDS011;14353;46.070;13.222;2024-02-26T01:46:12;4.45;;;3.28;;
23376;SDS011;14353;46.070;13.222;2024-02-26T01:48:43;4.03;;;3.55;;
23376;SDS011;14353;46.070;13.222;2024-02-26T01:51:10;3.80;;;3.28;;
23376;SDS011;14353;46.070;13.222;2024-02-26T01:53:39;3.75;;;3.35;;
23376;SDS011;14353;46.070;13.222;2024-02-26T01:56:05;3.47;;;2.95;;
23376;SDS011;14353;46.070;13.222;2024-02-26T01:58:32;3.65;;;3.22;;
23376;SDS011;14353;46.070;13.222;2024-02-26T02:01:00;3.38;;;3.08;;
23376;SDS011;14353;46.070;13.222;2024-02-26T02:03:27;3.80;;;3.20;;
23376;SDS011;14353;46.070;13.222;2024-02-26T02:05:54;4.13;;;3.17;;
23376;SDS011;14353;46.070;13.222;2024-02-26T02:08:20;4.03;;;3.30;;
23376;SDS011;14353;46.070;13.222;2024-02-26T02:10:48;3.90;;;3.50;;
23376;SDS011;14353;46.070;13.222;2024-02-26T02:13:14;3.55;;;2.97;;
23376;SDS011;14353;46.070;13.222;2024-02-26T02:15:40;3.53;;;3.00;;
23376;SDS011;14353;46.070;13.222;2024-02-26T02:18:06;4.18;;;3.10;;
23376;SDS011;14353;46.070;13.222;2024-02-26T02:20:32;3.80;;;3.15;;
23376;SDS011;14353;46.070;13.222;2024-02-26T02:23:01;3.63;;;3.30;;
23376;SDS011;14353;46.070;13.222;2024-02-26T02:25:27;4.03;;;3.38;;
23376;SDS011;14353;46.070;13.222;2024-02-26T02:27:53;3.90;;;3.30;;
23376;SDS011;14353;46.070;13.222;2024-02-26T02:30:28;3.78;;;3.40;;
23376;SDS011;14353;46.070;13.222;2024-02-26T02:32:55;4.05;;;3.30;;
23376;SDS011;14353;46.070;13.222;2024-02-26T02:35:23;3.53;;;3.10;;
23376;SDS011;14353;46.070;13.222;2024-02-26T02:37:51;4.13;;;3.30;;
23376;SDS011;14353;46.070;13.222;2024-02-26T02:40:17;3.88;;;3.25;;
23376;SDS011;14353;46.070;13.222;2024-02-26T02:42:43;3.60;;;3.30;;
23376;SDS011;14353;46.070;13.222;2024-02-26T02:45:09;3.65;;;3.20;;
23376;SDS011;14353;46.070;13.222;2024-02-26T02:47:38;4.03;;;3.20;;
23376;SDS011;14353;46.070;13.222;2024-02-26T02:50:04;3.53;;;3.22;;
23376;SDS011;14353;46.070;13.222;2024-02-26T02:52:30;3.63;;;3.10;;
23376;SDS011;14353;46.070;13.222;2024-02-26T02:54:56;3.40;;;3.05;;
23376;SDS011;14353;46.070;13.222;2024-02-26T02:57:21;4.00;;;3.10;;
23376;SDS011;14353;46.070;13.222;2024-02-26T02:59:47;4.00;;;3.17;;
23376;SDS011;14353;46.070;13.222;2024-02-26T03:02:13;3.40;;;2.90;;
23376;SDS011;14353;46.070;13.222;2024-02-26T03:04:39;3.38;;;3.08;;
23376;SDS011;14353;46.070;13.222;2024-02-26T03:07:04;3.40;;;3.00;;
23376;SDS011;14353;46.070;13.222;2024-02-26T03:09:30;3.60;;;3.30;;
23376;SDS011;14353;46.070;13.222;2024-02-26T03:11:56;3.65;;;3.30;;
23376;SDS011;14353;46.070;13.222;2024-02-26T03:14:25;3.78;;;3.00;;
23376;SDS011;14353;46.070;13.222;2024-02-26T03:16:53;3.85;;;3.00;;
23376;SDS011;14353;46.070;13.222;2024-02-26T03:19:19;3.60;;;2.72;;
23376;SDS011;14353;46.070;13.222;2024-02-26T03:21:45;4.13;;;3.15;;
23376;SDS011;14353;46.070;13.222;2024-02-26T03:24:11;3.58;;;3.20;;
23376;SDS011;14353;46.070;13.222;2024-02-26T03:26:37;3.30;;;2.92;;
23376;SDS011;14353;46.070;13.222;2024-02-26T03:29:03;2.90;;;2.55;;
23376;SDS011;14353;46.070;13.222;2024-02-26T03:31:29;3.33;;;3.03;;
23376;SDS011;14353;46.070;13.222;2024-02-26T03:33:55;3.22;;;2.88;;
23376;SDS011;14353;46.070;13.222;2024-02-26T03:36:21;4.13;;;2.95;;
23376;SDS011;14353;46.070;13.222;2024-02-26T03:38:47;4.50;;;3.05;;
23376;SDS011;14353;46.070;13.222;2024-02-26T03:41:13;3.30;;;2.60;;
23376;SDS011;14353;46.070;13.222;2024-02-26T03:43:39;3.00;;;2.70;;
23376;SDS011;14353;46.070;13.222;2024-02-26T03:46:09;3.30;;;3.00;;
23376;SDS011;14353;46.070;13.222;2024-02-26T03:48:36;3.40;;;3.10;;
23376;SDS011;14353;46.070;13.222;2024-02-26T03:51:02;3.35;;;2.90;;
23376;SDS011;14353;46.070;13.222;2024-02-26T03:53:29;3.10;;;2.80;;
23376;SDS011;14353;46.070;13.222;2024-02-26T03:55:54;3.35;;;2.90;;
23376;SDS011;14353;46.070;13.222;2024-02-26T03:58:20;3.30;;;3.00;;
23376;SDS011;14353;46.070;13.222;2024-02-26T04:00:46;3.28;;;2.67;;
23376;SDS011;14353;46.070;13.222;2024-02-26T04:03:15;3.53;;;3.05;;
23376;SDS011;14353;46.070;13.222;2024-02-26T04:05:40;3.33;;;2.85;;
23376;SDS011;14353;46.070;13.222;2024-02-26T04:08:06;3.53;;;2.80;;
23376;SDS011;14353;46.070;13.222;2024-02-26T04:10:33;3.72;;;2.90;;
23376;SDS011;14353;46.070;13.222;2024-02-26T04:13:04;3.53;;;2.97;;
23376;SDS011;14353;46.070;13.222;2024-02-26T04:15:30;3.20;;;2.70;;
23376;SDS011;14353;46.070;13.222;2024-02-26T04:17:56;3.03;;;2.72;;
23376;SDS011;14353;46.070;13.222;2024-02-26T04:20:22;3.38;;;2.80;;
23376;SDS011;14353;46.070;13.222;2024-02-26T04:22:48;3.15;;;2.60;;
23376;SDS011;14353;46.070;13.222;2024-02-26T04:25:13;2.97;;;2.53;;
23376;SDS011;14353;46.070;13.222;2024-02-26T04:27:40;3.10;;;2.65;;
23376;SDS011;14353;46.070;13.222;2024-02-26T04:30:06;3.47;;;2.80;;
23376;SDS011;14353;46.070;13.222;2024-02-26T04:32:32;3.38;;;2.60;;
23376;SDS011;14353;46.070;13.222;2024-02-26T04:34:59;3.15;;;2.85;;
23376;SDS011;14353;46.070;13.222;2024-02-26T04:37:25;2.88;;;2.58;;
23376;SDS011;14353;46.070;13.222;2024-02-26T04:39:57;3.50;;;2.75;;
23376;SDS011;14353;46.070;13.222;2024-02-26T04:42:23;3.10;;;2.63;;
23376;SDS011;14353;46.070;13.222;2024-02-26T04:44:49;2.90;;;2.58;;
23376;SDS011;14353;46.070;13.222;2024-02-26T04:47:15;3.58;;;2.80;;
23376;SDS011;14353;46.070;13.222;2024-02-26T04:49:40;2.80;;;2.50;;
23376;SDS011;14353;46.070;13.222;2024-02-26T04:52:06;3.17;;;2.70;;
23376;SDS011;14353;46.070;13.222;2024-02-26T04:54:32;2.97;;;2.67;;
23376;SDS011;14353;46.070;13.222;2024-02-26T04:56:57;2.65;;;2.42;;
23376;SDS011;14353;46.070;13.222;2024-02-26T04:59:23;2.88;;;2.50;;
23376;SDS011;14353;46.070;13.222;2024-02-26T05:01:49;2.70;;;2.50;;
23376;SDS011;14353;46.070;13.222;2024-02-26T05:04:17;2.90;;;2.60;;
23376;SDS011;14353;46.070;13.222;2024-02-26T05:06:43;3.28;;;2.60;;
23376;SDS011;14353;46.070;13.222;2024-02-26T05:09:09;3.35;;;2.80;;
23376;SDS011;14353;46.070;13.222;2024-02-26T05:11:37;2.60;;;2.40;;
23376;SDS011;14353;46.070;13.222;2024-02-26T05:14:03;3.20;;;2.42;;
23376;SDS011;14353;46.070;13.222;2024-02-26T05:16:28;2.67;;;2.40;;
23376;SDS011;14353;46.070;13.222;2024-02-26T05:18:56;3.20;;;2.40;;
23376;SDS011;14353;46.070;13.222;2024-02-26T05:21:22;2.92;;;2.47;;
23376;SDS011;14353;46.070;13.222;2024-02-26T05:23:47;2.65;;;2.28;;
23376;SDS011;14353;46.070;13.222;2024-02-26T05:26:22;2.55;;;2.35;;
23376;SDS011;14353;46.070;13.222;2024-02-26T05:28:48;3.20;;;2.30;;
23376;SDS011;14353;46.070;13.222;2024-02-26T05:31:14;2.80;;;2.35;;
23376;SDS011;14353;46.070;13.222;2024-02-26T05:33:41;2.92;;;2.42;;
23376;SDS011;14353;46.070;13.222;2024-02-26T05:36:06;2.50;;;2.30;;
23376;SDS011;14353;46.070;13.222;2024-02-26T05:38:32;3.08;;;2.40;;
23376;SDS011;14353;46.070;13.222;2024-02-26T05:40:58;2.33;;;2.10;;
23376;SDS011;14353;46.070;13.222;2024-02-26T05:43:25;2.72;;;2.13;;
23376;SDS011;14353;46.070;13.222;2024-02-26T05:45:51;3.25;;;2.33;;
23376;SDS011;14353;46.070;13.222;2024-02-26T05:48:17;2.42;;;2.22;;
23376;SDS011;14353;46.070;13.222;2024-02-26T05:50:44;2.30;;;2.10;;
23376;SDS011;14353;46.070;13.222;2024-02-26T05:53:10;3.17;;;2.60;;
23376;SDS011;14353;46.070;13.222;2024-02-26T05:55:36;3.28;;;2.65;;
23376;SDS011;14353;46.070;13.222;2024-02-26T05:58:02;3.15;;;2.30;;
23376;SDS011;14353;46.070;13.222;2024-02-26T06:00:28;2.55;;;2.35;;
23376;SDS011;14353;46.070;13.222;2024-02-26T06:02:53;2.53;;;2.33;;
23376;SDS011;14353;46.070;13.222;2024-02-26T06:05:19;2.58;;;2.38;;
23376;SDS011;14353;46.070;13.222;2024-02-26T06:07:45;3.38;;;2.20;;
23376;SDS011;14353;46.070;13.222;2024-02-26T06:10:10;2.80;;;2.47;;
23376;SDS011;14353;46.070;13.222;2024-02-26T06:12:38;3.00;;;2.30;;
23376;SDS011;14353;46.070;13.222;2024-02-26T06:15:05;2.90;;;2.40;;
23376;SDS011;14353;46.070;13.222;2024-02-26T06:17:32;2.50;;;2.20;;
23376;SDS011;14353;46.070;13.222;2024-02-26T06:19:58;2.20;;;2.00;;
23376;SDS011;14353;46.070;13.222;2024-02-26T06:22:25;2.88;;;2.10;;
23376;SDS011;14353;46.070;13.222;2024-02-26T06:24:51;2.45;;;2.25;;
23376;SDS011;14353;46.070;13.222;2024-02-26T06:27:16;2.67;;;2.30;;
23376;SDS011;14353;46.070;13.222;2024-02-26T06:29:42;2.38;;;2.10;;
23376;SDS011;14353;46.070;13.222;2024-02-26T06:32:08;3.95;;;2.22;;
23376;SDS011;14353;46.070;13.222;2024-02-26T06:34:34;2.20;;;2.00;;
23376;SDS011;14353;46.070;13.222;2024-02-26T06:36:59;2.42;;;2.10;;
23376;SDS011;14353;46.070;13.222;2024-02-26T06:39:25;2.13;;;1.83;;
23376;SDS011;14353;46.070;13.222;2024-02-26T06:41:51;2.60;;;2.10;;
23376;SDS011;14353;46.070;13.222;2024-02-26T06:44:23;2.10;;;1.85;;
23376;SDS011;14353;46.070;13.222;2024-02-26T06:46:49;2.47;;;2.10;;
23376;SDS011;14353;46.070;13.222;2024-02-26T06:49:15;2.08;;;1.88;;
23376;SDS011;14353;46.070;13.222;2024-02-26T06:51:41;2.35;;;2.00;;
23376;SDS011;14353;46.070;13.222;2024-02-26T06:54:06;2.00;;;1.80;;
23376;SDS011;14353;46.070;13.222;2024-02-26T06:56:32;2.00;;;1.80;;
23376;SDS011;14353;46.070;13.222;2024-02-26T06:58:58;2.30;;;1.77;;
23376;SDS011;14353;46.070;13.222;2024-02-26T07:01:23;2.03;;;1.83;;
23376;SDS011;14353;46.070;13.222;2024-02-26T07:03:49;2.17;;;1.98;;
23376;SDS011;14353;46.070;13.222;2024-02-26T07:06:15;2.40;;;2.10;;
23376;SDS011;14353;46.070;13.222;2024-02-26T07:08:41;2.13;;;1.90;;
23376;SDS011;14353;46.070;13.222;2024-02-26T07:11:10;2.20;;;2.00;;
23376;SDS011;14353;46.070;13.222;2024-02-26T07:13:37;2.90;;;1.90;;
23376;SDS011;14353;46.070;13.222;2024-02-26T07:16:03;2.25;;;1.85;;
23376;SDS011;14353;46.070;13.222;2024-02-26T07:18:29;6.20;;;2.17;;
23376;SDS011;14353;46.070;13.222;2024-02-26T07:20:56;3.85;;;1.92;;
23376;SDS011;14353;46.070;13.222;2024-02-26T07:23:22;6.53;;;1.88;;
23376;SDS011;14353;46.070;13.222;2024-02-26T07:25:47;3.80;;;1.90;;
23376;SDS011;14353;46.070;13.222;2024-02-26T07:28:17;6.70;;;1.90;;
23376;SDS011;14353;46.070;13.222;2024-02-26T07:30:44;4.78;;;2.20;;
23376;SDS011;14353;46.070;13.222;2024-02-26T07:33:10;7.55;;;1.83;;
23376;SDS011;14353;46.070;13.222;2024-02-26T07:35:35;5.90;;;1.95;;
23376;SDS011;14353;46.070;13.222;2024-02-26T07:38:03;3.08;;;1.70;;
23376;SDS011;14353;46.070;13.222;2024-02-26T07:40:32;3.95;;;1.80;;
23376;SDS011;14353;46.070;13.222;2024-02-26T07:42:58;3.80;;;1.85;;
23376;SDS011;14353;46.070;13.222;2024-02-26T07:45:24;4.15;;;1.75;;
23376;SDS011;14353;46.070;13.222;2024-02-26T07:47:49;4.45;;;1.50;;
23376;SDS011;14353;46.070;13.222;2024-02-26T07:50:18;5.88;;;1.52;;
23376;SDS011;14353;46.070;13.222;2024-02-26T07:52:44;2.80;;;1.33;;
23376;SDS011;14353;46.070;13.222;2024-02-26T07:55:10;5.55;;;1.60;;
23376;SDS011;14353;46.070;13.222;2024-02-26T07:57:36;4.03;;;1.70;;
23376;SDS011;14353;46.070;13.222;2024-02-26T08:00:02;3.20;;;1.42;;
23376;SDS011;14353;46.070;13.222;2024-02-26T08:02:29;7.07;;;1.75;;
23376;SDS011;14353;46.070;13.222;2024-02-26T08:04:54;4.53;;;1.58;;
23376;SDS011;14353;46.070;13.222;2024-02-26T08:07:20;5.20;;;1.48;;
23376;SDS011;14353;46.070;13.222;2024-02-26T08:09:46;5.13;;;1.92;;
23376;SDS011;14353;46.070;13.222;2024-02-26T08:12:12;5.63;;;1.48;;
23376;SDS011;14353;46.070;13.222;2024-02-26T08:14:38;3.80;;;1.38;;
23376;SDS011;14353;46.070;13.222;2024-02-26T08:17:04;12.75;;;2.40;;
23376;SDS011;14353;46.070;13.222;2024-02-26T08:19:30;6.53;;;1.65;;
23376;SDS011;14353;46.070;13.222;2024-02-26T08:21:56;5.38;;;1.63;;
23376;SDS011;14353;46.070;13.222;2024-02-26T08:24:22;8.68;;;1.80;;
23376;SDS011;14353;46.070;13.222;2024-02-26T08:26:48;8.63;;;2.10;;
23376;SDS011;14353;46.070;13.222;2024-02-26T08:29:14;11.90;;;1.80;;
23376;SDS011;14353;46.070;13.222;2024-02-26T08:31:39;9.15;;;2.22;;
23376;SDS011;14353;46.070;13.222;2024-02-26T08:34:06;8.30;;;2.22;;
23376;SDS011;14353;46.070;13.222;2024-02-26T08:36:32;8.23;;;1.70;;
23376;SDS011;14353;46.070;13.222;2024-02-26T08:38:59;8.63;;;1.80;;
23376;SDS011;14353;46.070;13.222;2024-02-26T08:41:24;12.38;;;2.42;;
23376;SDS011;14353;46.070;13.222;2024-02-26T08:43:50;5.22;;;1.77;;
23376;SDS011;14353;46.070;13.222;2024-02-26T08:46:16;7.60;;;1.80;;
23376;SDS011;14353;46.070;13.222;2024-02-26T08:48:42;5.97;;;2.08;;
23376;SDS011;14353;46.070;13.222;2024-02-26T08:51:08;8.32;;;1.70;;
23376;SDS011;14353;46.070;13.222;2024-02-26T08:53:34;8.50;;;1.98;;
23376;SDS011;14353;46.070;13.222;2024-02-26T08:56:02;10.65;;;2.05;;
23376;SDS011;14353;46.070;13.222;2024-02-26T08:58:28;7.18;;;1.73;;
23376;SDS011;14353;46.070;13.222;2024-02-26T09:00:55;10.38;;;2.05;;
23376;SDS011;14353;46.070;13.222;2024-02-26T09:03:21;12.02;;;1.80;;
23376;SDS011;14353;46.070;13.222;2024-02-26T09:05:47;6.28;;;1.98;;
23376;SDS011;14353;46.070;13.222;2024-02-26T09:08:14;7.00;;;1.52;;
23376;SDS011;14353;46.070;13.222;2024-02-26T09:10:39;10.20;;;2.35;;
23376;SDS011;14353;46.070;13.222;2024-02-26T09:13:06;10.73;;;2.30;;
23376;SDS011;14353;46.070;13.222;2024-02-26T09:15:33;5.78;;;1.88;;
23376;SDS011;14353;46.070;13.222;2024-02-26T09:17:59;7.65;;;1.65;;
23376;SDS011;14353;46.070;13.222;2024-02-26T09:20:25;4.13;;;1.98;;
23376;SDS011;14353;46.070;13.222;2024-02-26T09:22:51;7.53;;;1.85;;
23376;SDS011;14353;46.070;13.222;2024-02-26T09:25:17;7.75;;;1.70;;
23376;SDS011;14353;46.070;13.222;2024-02-26T09:27:46;7.88;;;1.63;;
23376;SDS011;14353;46.070;13.222;2024-02-26T09:30:13;8.80;;;1.70;;
23376;SDS011;14353;46.070;13.222;2024-02-26T09:32:39;6.72;;;1.85;;
23376;SDS011;14353;46.070;13.222;2024-02-26T09:35:05;8.88;;;2.00;;
23376;SDS011;14353;46.070;13.222;2024-02-26T09:37:31;6.70;;;1.80;;
23376;SDS011;14353;46.070;13.222;2024-02-26T09:39:58;12.40;;;2.05;;
23376;SDS011;14353;46.070;13.222;2024-02-26T09:42:27;5.50;;;1.48;;
23376;SDS011;14353;46.070;13.222;2024-02-26T09:44:56;9.77;;;1.70;;
23376;SDS011;14353;46.070;13.222;2024-02-26T09:47:26;7.38;;;1.85;;
23376;SDS011;14353;46.070;13.222;2024-02-26T09:49:56;5.15;;;1.88;;
23376;SDS011;14353;46.070;13.222;2024-02-26T09:52:23;8.60;;;1.80;;
23376;SDS011;14353;46.070;13.222;2024-02-26T09:54:50;8.23;;;1.60;;
23376;SDS011;14353;46.070;13.222;2024-02-26T09:57:16;7.40;;;1.92;;
23376;SDS011;14353;46.070;13.222;2024-02-26T09:59:43;10.13;;;2.45;;
23376;SDS011;14353;46.070;13.222;2024-02-26T10:02:12;6.68;;;1.83;;
23376;SDS011;14353;46.070;13.222;2024-02-26T10:04:42;6.82;;;2.10;;
23376;SDS011;14353;46.070;13.222;2024-02-26T10:07:09;7.40;;;2.30;;
23376;SDS011;14353;46.070;13.222;2024-02-26T10:09:36;9.27;;;2.10;;
23376;SDS011;14353;46.070;13.222;2024-02-26T10:12:03;7.32;;;1.83;;
23376;SDS011;14353;46.070;13.222;2024-02-26T10:14:32;14.27;;;2.15;;
23376;SDS011;14353;46.070;13.222;2024-02-26T10:16:58;4.05;;;1.60;;
23376;SDS011;14353;46.070;13.222;2024-02-26T10:19:29;6.53;;;2.10;;
23376;SDS011;14353;46.070;13.222;2024-02-26T10:22:02;5.07;;;1.90;;
23376;SDS011;14353;46.070;13.222;2024-02-26T10:24:30;5.63;;;1.60;;
23376;SDS011;14353;46.070;13.222;2024-02-26T10:26:56;6.30;;;1.88;;
23376;SDS011;14353;46.070;13.222;2024-02-26T10:29:23;4.60;;;1.85;;
23376;SDS011;14353;46.070;13.222;2024-02-26T10:31:52;7.00;;;2.05;;
23376;SDS011;14353;46.070;13.222;2024-02-26T10:34:18;4.88;;;1.90;;
23376;SDS011;14353;46.070;13.222;2024-02-26T10:36:44;5.18;;;1.90;;
23376;SDS011;14353;46.070;13.222;2024-02-26T10:39:13;9.15;;;2.08;;
23376;SDS011;14353;46.070;13.222;2024-02-26T10:41:43;7.30;;;1.98;;
23376;SDS011;14353;46.070;13.222;2024-02-26T10:44:10;5.50;;;1.60;;
23376;SDS011;14353;46.070;13.222;2024-02-26T10:46:38;7.32;;;2.03;;
23376;SDS011;14353;46.070;13.222;2024-02-26T10:49:05;9.98;;;2.50;;
23376;SDS011;14353;46.070;13.222;2024-02-26T10:51:37;9.23;;;2.13;;
23376;SDS011;14353;46.070;13.222;2024-02-26T10:54:04;5.88;;;1.95;;
23376;SDS011;14353;46.070;13.222;2024-02-26T10:56:33;7.35;;;1.80;;
23376;SDS011;14353;46.070;13.222;2024-02-26T10:58:59;9.38;;;2.08;;
23376;SDS011;14353;46.070;13.222;2024-02-26T11:01:27;9.55;;;2.08;;
23376;SDS011;14353;46.070;13.222;2024-02-26T11:03:57;7.25;;;1.85;;
23376;SDS011;14353;46.070;13.222;2024-02-26T11:06:24;12.90;;;2.30;;
23376;SDS011;14353;46.070;13.222;2024-02-26T11:08:51;9.82;;;1.95;;
23376;SDS011;14353;46.070;13.222;2024-02-26T11:11:18;9.05;;;2.10;;
23376;SDS011;14353;46.070;13.222;2024-02-26T11:13:46;9.68;;;1.88;;
23376;SDS011;14353;46.070;13.222;2024-02-26T11:16:17;7.55;;;2.17;;
23376;SDS011;14353;46.070;13.222;2024-02-26T11:18:48;10.57;;;2.10;;
23376;SDS011;14353;46.070;13.222;2024-02-26T11:21:17;9.35;;;2.22;;
23376;SDS011;14353;46.070;13.222;2024-02-26T11:23:47;5.05;;;1.70;;
23376;SDS011;14353;46.070;13.222;2024-02-26T11:26:13;7.28;;;1.75;;
23376;SDS011;14353;46.070;13.222;2024-02-26T11:28:41;9.73;;;1.90;;
23376;SDS011;14353;46.070;13.222;2024-02-26T11:31:08;6.75;;;1.95;;
23376;SDS011;14353;46.070;13.222;2024-02-26T11:33:35;6.20;;;1.75;;
23376;SDS011;14353;46.070;13.222;2024-02-26T11:36:02;8.95;;;1.90;;
23376;SDS011;14353;46.070;13.222;2024-02-26T11:38:32;8.25;;;1.67;;
23376;SDS011;14353;46.070;13.222;2024-02-26T11:40:58;7.78;;;2.00;;
23376;SDS011;14353;46.070;13.222;2024-02-26T11:46:32;7.93;;;1.90;;
23376;SDS011;14353;46.070;13.222;2024-02-26T11:49:02;4.88;;;1.85;;
23376;SDS011;14353;46.070;13.222;2024-02-26T11:51:50;7.53;;;1.70;;
23376;SDS011;14353;46.070;13.222;2024-02-26T12:00:11;10.70;;;1.85;;
23376;SDS011;14353;46.070;13.222;2024-02-26T12:05:11;9.32;;;1.90;;
23376;SDS011;14353;46.070;13.222;2024-02-26T12:07:45;7.20;;;1.63;;
23376;SDS011;14353;46.070;13.222;2024-02-26T12:10:27;10.57;;;2.47;;
23376;SDS011;14353;46.070;13.222;2024-02-26T12:13:02;13.00;;;2.13;;
23376;SDS011;14353;46.070;13.222;2024-02-26T12:15:31;7.63;;;2.10;;
23376;SDS011;14353;46.070;13.222;2024-02-26T12:18:00;12.65;;;1.92;;
23376;SDS011;14353;46.070;13.222;2024-02-26T12:20:27;9.18;;;1.85;;
23376;SDS011;14353;46.070;13.222;2024-02-26T12:22:53;7.82;;;1.70;;
23376;SDS011;14353;46.070;13.222;2024-02-26T12:25:24;15.35;;;2.40;;
23376;SDS011;14353;46.070;13.222;2024-02-26T12:27:51;10.90;;;2.03;;
23376;SDS011;14353;46.070;13.222;2024-02-26T12:30:18;12.57;;;2.10;;
23376;SDS011;14353;46.070;13.222;2024-02-26T12:32:44;14.05;;;2.28;;
23376;SDS011;14353;46.070;13.222;2024-02-26T12:35:14;14.73;;;2.17;;
23376;SDS011;14353;46.070;13.222;2024-02-26T12:37:41;10.88;;;1.98;;
23376;SDS011;14353;46.070;13.222;2024-02-26T12:40:08;11.23;;;2.42;;
23376;SDS011;14353;46.070;13.222;2024-02-26T12:42:38;8.23;;;1.88;;
23376;SDS011;14353;46.070;13.222;2024-02-26T12:45:05;8.52;;;2.17;;
23376;SDS011;14353;46.070;13.222;2024-02-26T12:47:39;7.57;;;2.05;;
23376;SDS011;14353;46.070;13.222;2024-02-26T12:50:05;7.60;;;1.90;;
23376;SDS011;14353;46.070;13.222;2024-02-26T12:52:37;7.82;;;2.20;;
23376;SDS011;14353;46.070;13.222;2024-02-26T12:55:08;8.15;;;2.00;;
23376;SDS011;14353;46.070;13.222;2024-02-26T12:57:36;6.10;;;1.52;;
23376;SDS011;14353;46.070;13.222;2024-02-26T13:00:04;6.78;;;1.80;;
23376;SDS011;14353;46.070;13.222;2024-02-26T13:02:31;4.85;;;1.50;;
23376;SDS011;14353;46.070;13.222;2024-02-26T13:04:57;9.55;;;2.08;;
23376;SDS011;14353;46.070;13.222;2024-02-26T13:07:26;4.72;;;1.70;;
23376;SDS011;14353;46.070;13.222;2024-02-26T13:09:52;6.05;;;1.77;;
23376;SDS011;14353;46.070;13.222;2024-02-26T13:12:19;6.25;;;1.92;;
23376;SDS011;14353;46.070;13.222;2024-02-26T13:14:45;7.00;;;1.52;;
23376;SDS011;14353;46.070;13.222;2024-02-26T13:17:11;5.90;;;1.98;;
23376;SDS011;14353;46.070;13.222;2024-02-26T13:19:37;4.88;;;1.85;;
23376;SDS011;14353;46.070;13.222;2024-02-26T13:22:07;4.63;;;1.42;;
23376;SDS011;14353;46.070;13.222;2024-02-26T13:24:33;3.15;;;1.65;;
23376;SDS011;14353;46.070;13.222;2024-02-26T13:26:59;8.98;;;1.60;;
23376;SDS011;14353;46.070;13.222;2024-02-26T13:29:26;5.10;;;1.52;;
23376;SDS011;14353;46.070;13.222;2024-02-26T13:31:55;6.47;;;1.92;;
23376;SDS011;14353;46.070;13.222;2024-02-26T13:34:23;4.80;;;1.75;;
23376;SDS011;14353;46.070;13.222;2024-02-26T13:36:53;6.28;;;1.52;;
23376;SDS011;14353;46.070;13.222;2024-02-26T13:39:26;8.07;;;2.05;;
23376;SDS011;14353;46.070;13.222;2024-02-26T13:41:53;10.65;;;2.00;;
23376;SDS011;14353;46.070;13.222;2024-02-26T13:44:19;10.50;;;1.60;;
23376;SDS011;14353;46.070;13.222;2024-02-26T13:46:46;8.27;;;1.70;;
23376;SDS011;14353;46.070;13.222;2024-02-26T13:49:12;6.45;;;1.45;;
23376;SDS011;14353;46.070;13.222;2024-02-26T13:51:39;6.63;;;1.88;;
23376;SDS011;14353;46.070;13.222;2024-02-26T13:54:04;5.03;;;1.77;;
23376;SDS011;14353;46.070;13.222;2024-02-26T13:56:30;8.93;;;1.55;;
23376;SDS011;14353;46.070;13.222;2024-02-26T13:58:57;7.05;;;1.73;;
23376;SDS011;14353;46.070;13.222;2024-02-26T14:01:23;8.30;;;2.20;;
23376;SDS011;14353;46.070;13.222;2024-02-26T14:03:49;5.90;;;1.60;;
23376;SDS011;14353;46.070;13.222;2024-02-26T14:06:15;10.30;;;2.22;;
23376;SDS011;14353;46.070;13.222;2024-02-26T14:08:41;5.93;;;1.83;;
23376;SDS011;14353;46.070;13.222;2024-02-26T14:11:06;5.60;;;1.42;;
23376;SDS011;14353;46.070;13.222;2024-02-26T14:13:32;5.57;;;1.77;;
23376;SDS011;14353;46.070;13.222;2024-02-26T14:15:58;5.40;;;1.85;;
23376;SDS011;14353;46.070;13.222;2024-02-26T14:18:24;5.75;;;1.75;;
23376;SDS011;14353;46.070;13.222;2024-02-26T14:20:49;4.80;;;1.73;;
23376;SDS011;14353;46.070;13.222;2024-02-26T14:23:16;7.00;;;1.75;;
23376;SDS011;14353;46.070;13.222;2024-02-26T14:25:42;8.25;;;1.67;;
23376;SDS011;14353;46.070;13.222;2024-02-26T14:28:08;6.07;;;1.80;;
23376;SDS011;14353;46.070;13.222;2024-02-26T14:30:34;8.95;;;1.92;;
23376;SDS011;14353;46.070;13.222;2024-02-26T14:32:59;5.30;;;1.70;;
23376;SDS011;14353;46.070;13.222;2024-02-26T14:35:25;8.52;;;1.80;;
23376;SDS011;14353;46.070;13.222;2024-02-26T14:37:51;6.88;;;1.60;;
23376;SDS011;14353;46.070;13.222;2024-02-26T14:40:17;6.68;;;1.70;;
23376;SDS011;14353;46.070;13.222;2024-02-26T14:42:44;6.00;;;1.70;;